world map with TTU marked

TTU - Airport

This information may not be accurate or current and is not valid for navigation or flight planning. No warranty of fitness for any purpose is made or implied.

flag of Morocco

Donate via PayPal

Additional information is available on the NEW Great Circle Mapper

Location
City:  Tetouan, Tanger-Tétouan, Morocco
Name:Saniat R'mel International Airport
ICAO / IATA:GMTN / TTU

Details
Type:Airport (Aerodrome, Airfield)
Use:Public/Civil
Latitude:35°35'40"N (35.594444)
Longitude:5°19'12"W (-5.319999)
Elevation:13 ft (4 m)
Runways:1
Longest:7546 × 148 ft (2300 × 45 m)

Time
Timezone:UTC+0 (DST+3)
Local Time:

Weather
METAR:GMTN  121700Z 26013KT 9999 SCT026 18/08 Q1020 NOSIG

Related Locations
Nearby:
Farthest:WRE: 12426 mi / 19998 km
Whangarei, NTL, NZ

Find:

   beyond  
but within

Other Information
Maps:
Sources:

  


 


Great Circle Mapper   Great Circle Mapper
Great Circle Mapper FAQ   Great Circle Mapper FAQ
  Karl's Home Page
KLS²   KLS² Home
   GC on Facebook
Airlines of the World   Airlines of the World
Donate via PayPal


Copyright © 2004-2018, Karl L. Swartz. All rights reserved.
All trademarks mentioned herein belong to their respective owners.

Please see credits for attribution and copyright information.

Karl Swartz <karl@kls2.com>
  Powered by FreeBSD
Valid HTML 4.01!
Labeled with ICRA
hCard Microformat
Geo Microformat